sensor_id;sensor_type;location;lat;lon;timestamp;P1;durP1;ratioP1;P2;durP2;ratioP2
7729;SDS011;3908;52.310;7.230;2022-09-28T00:01:57;13.93;;;6.70;;
7729;SDS011;3908;52.310;7.230;2022-09-28T00:04:44;9.63;;;6.57;;
7729;SDS011;3908;52.310;7.230;2022-09-28T00:07:31;11.00;;;6.53;;
7729;SDS011;3908;52.310;7.230;2022-09-28T00:10:18;7.90;;;6.20;;
7729;SDS011;3908;52.310;7.230;2022-09-28T00:13:07;7.97;;;6.07;;
7729;SDS011;3908;52.310;7.230;2022-09-28T00:16:01;9.97;;;6.70;;
7729;SDS011;3908;52.310;7.230;2022-09-28T00:18:50;9.10;;;6.00;;
7729;SDS011;3908;52.310;7.230;2022-09-28T00:21:38;7.90;;;6.07;;
7729;SDS011;3908;52.310;7.230;2022-09-28T00:24:26;11.47;;;6.23;;
7729;SDS011;3908;52.310;7.230;2022-09-28T00:27:14;10.87;;;7.23;;
7729;SDS011;3908;52.310;7.230;2022-09-28T00:30:02;11.57;;;6.53;;
7729;SDS011;3908;52.310;7.230;2022-09-28T00:32:50;7.27;;;6.13;;
7729;SDS011;3908;52.310;7.230;2022-09-28T00:35:38;12.30;;;6.73;;
7729;SDS011;3908;52.310;7.230;2022-09-28T00:38:26;10.93;;;7.13;;
7729;SDS011;3908;52.310;7.230;2022-09-28T00:41:13;9.40;;;6.87;;
7729;SDS011;3908;52.310;7.230;2022-09-28T00:50:36;8.43;;;6.40;;
7729;SDS011;3908;52.310;7.230;2022-09-28T00:53:26;6.63;;;5.93;;
7729;SDS011;3908;52.310;7.230;2022-09-28T00:56:19;7.17;;;5.90;;
7729;SDS011;3908;52.310;7.230;2022-09-28T00:59:10;11.13;;;6.87;;
7729;SDS011;3908;52.310;7.230;2022-09-28T01:01:57;8.20;;;6.57;;
7729;SDS011;3908;52.310;7.230;2022-09-28T01:04:44;10.37;;;6.53;;
7729;SDS011;3908;52.310;7.230;2022-09-28T01:07:33;9.07;;;6.70;;
7729;SDS011;3908;52.310;7.230;2022-09-28T01:10:21;9.63;;;6.70;;
7729;SDS011;3908;52.310;7.230;2022-09-28T01:13:08;9.43;;;6.37;;
7729;SDS011;3908;52.310;7.230;2022-09-28T01:15:58;9.97;;;6.57;;
7729;SDS011;3908;52.310;7.230;2022-09-28T01:18:54;9.87;;;6.20;;
7729;SDS011;3908;52.310;7.230;2022-09-28T01:21:53;10.73;;;7.10;;
7729;SDS011;3908;52.310;7.230;2022-09-28T01:24:48;10.10;;;7.03;;
7729;SDS011;3908;52.310;7.230;2022-09-28T01:27:46;10.87;;;6.13;;
7729;SDS011;3908;52.310;7.230;2022-09-28T01:30:38;13.93;;;7.17;;
7729;SDS011;3908;52.310;7.230;2022-09-28T01:33:30;13.50;;;7.10;;
7729;SDS011;3908;52.310;7.230;2022-09-28T01:36:23;9.13;;;6.13;;
7729;SDS011;3908;52.310;7.230;2022-09-28T01:39:16;9.27;;;6.83;;
7729;SDS011;3908;52.310;7.230;2022-09-28T01:42:09;11.47;;;6.33;;
7729;SDS011;3908;52.310;7.230;2022-09-28T01:45:03;10.03;;;6.60;;
7729;SDS011;3908;52.310;7.230;2022-09-28T01:47:56;8.60;;;6.37;;
7729;SDS011;3908;52.310;7.230;2022-09-28T01:50:47;8.17;;;6.37;;
7729;SDS011;3908;52.310;7.230;2022-09-28T01:53:38;9.37;;;7.30;;
7729;SDS011;3908;52.310;7.230;2022-09-28T01:56:31;11.63;;;7.13;;
7729;SDS011;3908;52.310;7.230;2022-09-28T01:59:24;9.20;;;7.00;;
7729;SDS011;3908;52.310;7.230;2022-09-28T02:02:16;16.93;;;6.93;;
7729;SDS011;3908;52.310;7.230;2022-09-28T02:05:06;8.63;;;6.90;;
7729;SDS011;3908;52.310;7.230;2022-09-28T02:07:59;9.63;;;7.23;;
7729;SDS011;3908;52.310;7.230;2022-09-28T02:10:53;12.40;;;7.50;;
7729;SDS011;3908;52.310;7.230;2022-09-28T02:13:45;10.73;;;6.87;;
7729;SDS011;3908;52.310;7.230;2022-09-28T02:16:37;14.27;;;7.60;;
7729;SDS011;3908;52.310;7.230;2022-09-28T02:19:27;11.60;;;7.73;;
7729;SDS011;3908;52.310;7.230;2022-09-28T02:22:18;11.07;;;6.63;;
7729;SDS011;3908;52.310;7.230;2022-09-28T02:25:11;11.73;;;7.30;;
7729;SDS011;3908;52.310;7.230;2022-09-28T02:28:06;12.00;;;7.70;;
7729;SDS011;3908;52.310;7.230;2022-09-28T02:30:55;11.77;;;6.63;;
7729;SDS011;3908;52.310;7.230;2022-09-28T02:33:43;8.97;;;6.97;;
7729;SDS011;3908;52.310;7.230;2022-09-28T02:36:33;15.53;;;6.90;;
7729;SDS011;3908;52.310;7.230;2022-09-28T02:39:20;9.27;;;6.57;;
7729;SDS011;3908;52.310;7.230;2022-09-28T02:42:10;10.07;;;7.50;;
7729;SDS011;3908;52.310;7.230;2022-09-28T02:45:07;11.50;;;6.83;;
7729;SDS011;3908;52.310;7.230;2022-09-28T02:48:07;11.77;;;7.37;;
7729;SDS011;3908;52.310;7.230;2022-09-28T02:51:05;10.83;;;7.03;;
7729;SDS011;3908;52.310;7.230;2022-09-28T02:54:09;30.10;;;9.40;;
7729;SDS011;3908;52.310;7.230;2022-09-28T02:57:09;10.73;;;7.37;;
7729;SDS011;3908;52.310;7.230;2022-09-28T03:00:05;11.00;;;7.10;;
7729;SDS011;3908;52.310;7.230;2022-09-28T03:02:58;10.40;;;6.77;;
7729;SDS011;3908;52.310;7.230;2022-09-28T03:05:52;11.33;;;6.80;;
7729;SDS011;3908;52.310;7.230;2022-09-28T03:08:46;89.43;;;11.83;;
7729;SDS011;3908;52.310;7.230;2022-09-28T03:11:42;21.53;;;11.20;;
7729;SDS011;3908;52.310;7.230;2022-09-28T03:14:32;11.17;;;7.93;;
7729;SDS011;3908;52.310;7.230;2022-09-28T03:17:19;12.90;;;8.23;;
7729;SDS011;3908;52.310;7.230;2022-09-28T03:20:08;11.83;;;8.20;;
7729;SDS011;3908;52.310;7.230;2022-09-28T03:22:56;13.93;;;9.57;;
7729;SDS011;3908;52.310;7.230;2022-09-28T03:25:43;14.90;;;9.73;;
7729;SDS011;3908;52.310;7.230;2022-09-28T03:28:31;16.70;;;9.87;;
7729;SDS011;3908;52.310;7.230;2022-09-28T03:31:18;13.23;;;8.63;;
7729;SDS011;3908;52.310;7.230;2022-09-28T03:34:05;17.37;;;10.00;;
7729;SDS011;3908;52.310;7.230;2022-09-28T03:36:53;12.40;;;9.20;;
7729;SDS011;3908;52.310;7.230;2022-09-28T03:39:40;17.53;;;9.37;;
7729;SDS011;3908;52.310;7.230;2022-09-28T03:42:27;15.77;;;9.30;;
7729;SDS011;3908;52.310;7.230;2022-09-28T03:45:15;41.83;;;11.63;;
7729;SDS011;3908;52.310;7.230;2022-09-28T03:48:02;16.27;;;10.20;;
7729;SDS011;3908;52.310;7.230;2022-09-28T03:50:51;18.53;;;10.20;;
7729;SDS011;3908;52.310;7.230;2022-09-28T03:53:39;17.93;;;10.50;;
7729;SDS011;3908;52.310;7.230;2022-09-28T03:56:26;15.27;;;10.20;;
7729;SDS011;3908;52.310;7.230;2022-09-28T03:59:13;15.83;;;10.63;;
7729;SDS011;3908;52.310;7.230;2022-09-28T04:02:02;16.20;;;11.07;;
7729;SDS011;3908;52.310;7.230;2022-09-28T04:04:49;16.80;;;10.53;;
7729;SDS011;3908;52.310;7.230;2022-09-28T04:07:36;17.50;;;11.70;;
7729;SDS011;3908;52.310;7.230;2022-09-28T04:10:23;19.80;;;10.60;;
7729;SDS011;3908;52.310;7.230;2022-09-28T04:13:11;13.63;;;9.50;;
7729;SDS011;3908;52.310;7.230;2022-09-28T04:15:58;108.43;;;14.63;;
7729;SDS011;3908;52.310;7.230;2022-09-28T04:18:48;18.00;;;9.90;;
7729;SDS011;3908;52.310;7.230;2022-09-28T04:21:35;18.03;;;10.60;;
7729;SDS011;3908;52.310;7.230;2022-09-28T04:24:23;15.30;;;10.67;;
7729;SDS011;3908;52.310;7.230;2022-09-28T04:27:10;16.27;;;10.83;;
7729;SDS011;3908;52.310;7.230;2022-09-28T04:30:14;18.03;;;11.93;;
7729;SDS011;3908;52.310;7.230;2022-09-28T04:33:01;18.40;;;12.17;;
7729;SDS011;3908;52.310;7.230;2022-09-28T04:35:49;19.70;;;12.53;;
7729;SDS011;3908;52.310;7.230;2022-09-28T04:38:36;38.37;;;13.17;;
7729;SDS011;3908;52.310;7.230;2022-09-28T04:41:23;17.10;;;12.20;;
7729;SDS011;3908;52.310;7.230;2022-09-28T04:44:10;16.13;;;11.17;;
7729;SDS011;3908;52.310;7.230;2022-09-28T04:46:57;19.47;;;12.50;;
7729;SDS011;3908;52.310;7.230;2022-09-28T04:49:44;18.43;;;11.80;;
7729;SDS011;3908;52.310;7.230;2022-09-28T04:52:34;20.17;;;12.97;;
7729;SDS011;3908;52.310;7.230;2022-09-28T04:55:21;17.03;;;11.97;;
7729;SDS011;3908;52.310;7.230;2022-09-28T04:58:08;22.33;;;12.07;;
7729;SDS011;3908;52.310;7.230;2022-09-28T05:00:56;18.57;;;12.43;;
7729;SDS011;3908;52.310;7.230;2022-09-28T05:03:44;22.50;;;14.57;;
7729;SDS011;3908;52.310;7.230;2022-09-28T05:06:31;30.37;;;15.53;;
7729;SDS011;3908;52.310;7.230;2022-09-28T05:09:20;31.07;;;18.00;;
7729;SDS011;3908;52.310;7.230;2022-09-28T05:12:07;90.87;;;48.63;;
7729;SDS011;3908;52.310;7.230;2022-09-28T05:14:54;21.60;;;13.80;;
7729;SDS011;3908;52.310;7.230;2022-09-28T05:17:42;50.73;;;14.57;;
7729;SDS011;3908;52.310;7.230;2022-09-28T05:20:29;25.70;;;14.93;;
7729;SDS011;3908;52.310;7.230;2022-09-28T05:23:16;23.00;;;14.17;;
7729;SDS011;3908;52.310;7.230;2022-09-28T05:26:05;21.00;;;12.73;;
7729;SDS011;3908;52.310;7.230;2022-09-28T05:28:52;22.17;;;14.13;;
7729;SDS011;3908;52.310;7.230;2022-09-28T05:31:39;24.23;;;13.87;;
7729;SDS011;3908;52.310;7.230;2022-09-28T05:34:26;23.20;;;15.27;;
7729;SDS011;3908;52.310;7.230;2022-09-28T05:37:13;23.77;;;13.77;;
7729;SDS011;3908;52.310;7.230;2022-09-28T05:40:00;20.63;;;13.70;;
7729;SDS011;3908;52.310;7.230;2022-09-28T05:42:49;24.10;;;13.60;;
7729;SDS011;3908;52.310;7.230;2022-09-28T05:45:36;22.17;;;13.60;;
7729;SDS011;3908;52.310;7.230;2022-09-28T05:48:23;21.43;;;13.87;;
7729;SDS011;3908;52.310;7.230;2022-09-28T05:51:12;25.93;;;14.10;;
7729;SDS011;3908;52.310;7.230;2022-09-28T05:53:58;25.20;;;14.63;;
7729;SDS011;3908;52.310;7.230;2022-09-28T05:56:45;25.67;;;14.23;;
7729;SDS011;3908;52.310;7.230;2022-09-28T05:59:34;28.40;;;14.43;;
7729;SDS011;3908;52.310;7.230;2022-09-28T06:02:21;24.33;;;14.30;;
7729;SDS011;3908;52.310;7.230;2022-09-28T06:05:08;31.40;;;15.23;;
7729;SDS011;3908;52.310;7.230;2022-09-28T06:07:55;28.13;;;15.60;;
7729;SDS011;3908;52.310;7.230;2022-09-28T06:10:43;25.00;;;14.97;;
7729;SDS011;3908;52.310;7.230;2022-09-28T06:13:30;27.53;;;15.00;;
7729;SDS011;3908;52.310;7.230;2022-09-28T06:16:18;27.20;;;14.77;;
7729;SDS011;3908;52.310;7.230;2022-09-28T06:19:06;26.10;;;14.83;;
7729;SDS011;3908;52.310;7.230;2022-09-28T06:21:53;29.57;;;16.07;;
7729;SDS011;3908;52.310;7.230;2022-09-28T06:24:40;28.97;;;15.20;;
7729;SDS011;3908;52.310;7.230;2022-09-28T06:27:27;25.80;;;14.77;;
7729;SDS011;3908;52.310;7.230;2022-09-28T06:30:14;23.60;;;13.53;;
7729;SDS011;3908;52.310;7.230;2022-09-28T06:33:03;26.10;;;15.17;;
7729;SDS011;3908;52.310;7.230;2022-09-28T06:35:51;26.60;;;15.73;;
7729;SDS011;3908;52.310;7.230;2022-09-28T06:38:38;26.33;;;16.03;;
7729;SDS011;3908;52.310;7.230;2022-09-28T06:41:25;26.00;;;14.77;;
7729;SDS011;3908;52.310;7.230;2022-09-28T06:44:12;25.73;;;14.87;;
7729;SDS011;3908;52.310;7.230;2022-09-28T06:46:59;27.87;;;16.53;;
7729;SDS011;3908;52.310;7.230;2022-09-28T06:49:47;25.60;;;14.77;;
7729;SDS011;3908;52.310;7.230;2022-09-28T06:52:39;25.57;;;13.83;;
7729;SDS011;3908;52.310;7.230;2022-09-28T06:55:27;28.20;;;14.63;;
7729;SDS011;3908;52.310;7.230;2022-09-28T06:58:15;26.33;;;14.30;;
7729;SDS011;3908;52.310;7.230;2022-09-28T07:01:04;24.70;;;14.27;;
7729;SDS011;3908;52.310;7.230;2022-09-28T07:03:51;23.67;;;12.60;;
7729;SDS011;3908;52.310;7.230;2022-09-28T07:06:39;23.03;;;13.27;;
7729;SDS011;3908;52.310;7.230;2022-09-28T07:09:32;21.47;;;12.13;;
7729;SDS011;3908;52.310;7.230;2022-09-28T07:12:19;20.67;;;12.83;;
7729;SDS011;3908;52.310;7.230;2022-09-28T07:15:07;19.33;;;11.80;;
7729;SDS011;3908;52.310;7.230;2022-09-28T07:17:57;20.50;;;12.23;;
7729;SDS011;3908;52.310;7.230;2022-09-28T07:20:44;22.50;;;12.27;;
7729;SDS011;3908;52.310;7.230;2022-09-28T07:23:33;18.83;;;11.17;;
7729;SDS011;3908;52.310;7.230;2022-09-28T07:26:20;17.93;;;11.23;;
7729;SDS011;3908;52.310;7.230;2022-09-28T07:29:06;22.57;;;12.47;;
7729;SDS011;3908;52.310;7.230;2022-09-28T07:31:54;22.30;;;11.40;;
7729;SDS011;3908;52.310;7.230;2022-09-28T07:34:40;23.53;;;14.67;;
7729;SDS011;3908;52.310;7.230;2022-09-28T07:37:29;18.03;;;11.20;;
7729;SDS011;3908;52.310;7.230;2022-09-28T07:40:17;20.87;;;11.03;;
7729;SDS011;3908;52.310;7.230;2022-09-28T07:43:21;17.60;;;11.10;;
7729;SDS011;3908;52.310;7.230;2022-09-28T07:46:08;19.63;;;10.07;;
7729;SDS011;3908;52.310;7.230;2022-09-28T07:48:57;14.83;;;9.33;;
7729;SDS011;3908;52.310;7.230;2022-09-28T07:51:44;17.83;;;10.17;;
7729;SDS011;3908;52.310;7.230;2022-09-28T07:54:31;19.00;;;11.03;;
7729;SDS011;3908;52.310;7.230;2022-09-28T07:57:19;30.30;;;15.17;;
7729;SDS011;3908;52.310;7.230;2022-09-28T08:00:08;34.67;;;22.17;;
7729;SDS011;3908;52.310;7.230;2022-09-28T08:02:57;18.10;;;10.57;;
7729;SDS011;3908;52.310;7.230;2022-09-28T08:05:44;21.60;;;11.13;;
7729;SDS011;3908;52.310;7.230;2022-09-28T08:08:32;16.30;;;10.33;;
7729;SDS011;3908;52.310;7.230;2022-09-28T08:11:20;18.53;;;10.73;;
7729;SDS011;3908;52.310;7.230;2022-09-28T08:14:08;20.90;;;10.90;;
7729;SDS011;3908;52.310;7.230;2022-09-28T08:16:55;19.30;;;10.17;;
7729;SDS011;3908;52.310;7.230;2022-09-28T08:19:42;23.30;;;11.83;;
7729;SDS011;3908;52.310;7.230;2022-09-28T08:22:46;25.20;;;14.67;;
7729;SDS011;3908;52.310;7.230;2022-09-28T08:25:33;16.13;;;10.23;;
7729;SDS011;3908;52.310;7.230;2022-09-28T08:28:22;16.43;;;8.73;;
7729;SDS011;3908;52.310;7.230;2022-09-28T08:31:11;17.27;;;9.80;;
7729;SDS011;3908;52.310;7.230;2022-09-28T08:33:58;14.77;;;8.63;;
7729;SDS011;3908;52.310;7.230;2022-09-28T08:36:45;17.63;;;10.07;;
7729;SDS011;3908;52.310;7.230;2022-09-28T08:39:32;18.87;;;9.13;;
7729;SDS011;3908;52.310;7.230;2022-09-28T08:42:28;30.67;;;24.30;;
7729;SDS011;3908;52.310;7.230;2022-09-28T08:45:20;15.93;;;9.83;;
7729;SDS011;3908;52.310;7.230;2022-09-28T08:48:14;16.23;;;9.50;;
7729;SDS011;3908;52.310;7.230;2022-09-28T08:51:22;17.53;;;10.80;;
7729;SDS011;3908;52.310;7.230;2022-09-28T08:54:17;14.17;;;8.87;;
7729;SDS011;3908;52.310;7.230;2022-09-28T08:57:11;12.23;;;8.43;;
7729;SDS011;3908;52.310;7.230;2022-09-28T09:00:01;14.97;;;10.70;;
7729;SDS011;3908;52.310;7.230;2022-09-28T09:02:50;13.97;;;8.57;;
7729;SDS011;3908;52.310;7.230;2022-09-28T09:05:42;11.60;;;7.23;;
7729;SDS011;3908;52.310;7.230;2022-09-28T09:08:40;16.03;;;7.83;;
7729;SDS011;3908;52.310;7.230;2022-09-28T09:11:41;12.17;;;6.83;;
7729;SDS011;3908;52.310;7.230;2022-09-28T09:14:52;13.33;;;7.60;;
7729;SDS011;3908;52.310;7.230;2022-09-28T09:17:53;11.17;;;7.00;;
7729;SDS011;3908;52.310;7.230;2022-09-28T09:20:54;10.40;;;6.13;;
7729;SDS011;3908;52.310;7.230;2022-09-28T09:23:46;13.40;;;7.10;;
7729;SDS011;3908;52.310;7.230;2022-09-28T09:26:40;9.83;;;6.60;;
7729;SDS011;3908;52.310;7.230;2022-09-28T09:29:30;13.83;;;7.10;;
7729;SDS011;3908;52.310;7.230;2022-09-28T09:32:31;9.70;;;6.73;;
7729;SDS011;3908;52.310;7.230;2022-09-28T09:35:41;12.77;;;7.43;;
7729;SDS011;3908;52.310;7.230;2022-09-28T09:38:43;10.80;;;6.77;;
7729;SDS011;3908;52.310;7.230;2022-09-28T09:41:40;11.37;;;7.17;;
7729;SDS011;3908;52.310;7.230;2022-09-28T09:44:48;10.10;;;7.57;;
7729;SDS011;3908;52.310;7.230;2022-09-28T09:47:52;10.50;;;7.03;;
7729;SDS011;3908;52.310;7.230;2022-09-28T09:50:44;11.33;;;7.10;;
7729;SDS011;3908;52.310;7.230;2022-09-28T09:53:35;12.50;;;6.80;;
7729;SDS011;3908;52.310;7.230;2022-09-28T09:56:30;8.73;;;5.97;;
7729;SDS011;3908;52.310;7.230;2022-09-28T09:59:21;10.17;;;6.43;;
7729;SDS011;3908;52.310;7.230;2022-09-28T10:02:17;9.10;;;6.43;;
7729;SDS011;3908;52.310;7.230;2022-09-28T10:05:13;12.63;;;7.90;;
7729;SDS011;3908;52.310;7.230;2022-09-28T10:08:10;12.17;;;7.07;;
7729;SDS011;3908;52.310;7.230;2022-09-28T10:11:03;11.37;;;7.37;;
7729;SDS011;3908;52.310;7.230;2022-09-28T10:13:55;7.67;;;4.90;;
7729;SDS011;3908;52.310;7.230;2022-09-28T10:16:42;7.53;;;5.00;;
7729;SDS011;3908;52.310;7.230;2022-09-28T10:19:32;8.57;;;5.57;;
7729;SDS011;3908;52.310;7.230;2022-09-28T10:22:22;57.83;;;27.73;;
7729;SDS011;3908;52.310;7.230;2022-09-28T10:25:11;29.33;;;15.80;;
7729;SDS011;3908;52.310;7.230;2022-09-28T10:27:58;8.43;;;5.63;;
7729;SDS011;3908;52.310;7.230;2022-09-28T10:30:49;54.97;;;25.93;;
7729;SDS011;3908;52.310;7.230;2022-09-28T10:33:37;30.40;;;16.77;;
7729;SDS011;3908;52.310;7.230;2022-09-28T10:36:24;5.97;;;4.00;;
7729;SDS011;3908;52.310;7.230;2022-09-28T10:39:20;11.70;;;4.60;;
7729;SDS011;3908;52.310;7.230;2022-09-28T10:42:12;7.37;;;4.50;;
7729;SDS011;3908;52.310;7.230;2022-09-28T10:45:14;5.67;;;4.23;;
7729;SDS011;3908;52.310;7.230;2022-09-28T10:48:14;7.77;;;3.80;;
7729;SDS011;3908;52.310;7.230;2022-09-28T10:51:05;87.27;;;40.93;;
7729;SDS011;3908;52.310;7.230;2022-09-28T10:53:57;20.63;;;9.83;;
7729;SDS011;3908;52.310;7.230;2022-09-28T10:56:46;13.67;;;7.37;;
7729;SDS011;3908;52.310;7.230;2022-09-28T10:59:38;37.47;;;17.63;;
7729;SDS011;3908;52.310;7.230;2022-09-28T11:02:26;10.50;;;6.67;;
7729;SDS011;3908;52.310;7.230;2022-09-28T11:05:20;9.47;;;3.90;;
7729;SDS011;3908;52.310;7.230;2022-09-28T11:08:13;9.67;;;5.40;;
7729;SDS011;3908;52.310;7.230;2022-09-28T11:11:07;3.43;;;2.53;;
7729;SDS011;3908;52.310;7.230;2022-09-28T11:13:56;5.63;;;3.60;;
7729;SDS011;3908;52.310;7.230;2022-09-28T11:16:46;4.83;;;3.37;;
7729;SDS011;3908;52.310;7.230;2022-09-28T11:19:33;7.20;;;4.40;;
7729;SDS011;3908;52.310;7.230;2022-09-28T11:22:22;4.27;;;2.50;;
7729;SDS011;3908;52.310;7.230;2022-09-28T11:25:18;3.17;;;2.87;;
7729;SDS011;3908;52.310;7.230;2022-09-28T11:28:14;3.67;;;3.27;;
7729;SDS011;3908;52.310;7.230;2022-09-28T11:31:06;4.83;;;2.90;;
7729;SDS011;3908;52.310;7.230;2022-09-28T11:34:02;3.50;;;2.20;;
7729;SDS011;3908;52.310;7.230;2022-09-28T11:37:00;3.53;;;2.57;;
7729;SDS011;3908;52.310;7.230;2022-09-28T11:40:04;2.43;;;1.87;;
7729;SDS011;3908;52.310;7.230;2022-09-28T11:43:06;2.90;;;2.17;;
7729;SDS011;3908;52.310;7.230;2022-09-28T11:46:04;3.83;;;1.93;;
7729;SDS011;3908;52.310;7.230;2022-09-28T11:49:02;4.70;;;2.20;;
7729;SDS011;3908;52.310;7.230;2022-09-28T11:52:15;3.93;;;2.77;;
7729;SDS011;3908;52.310;7.230;2022-09-28T11:55:11;3.30;;;2.47;;
7729;SDS011;3908;52.310;7.230;2022-09-28T11:58:09;4.23;;;2.27;;
7729;SDS011;3908;52.310;7.230;2022-09-28T12:01:02;2.80;;;2.27;;
7729;SDS011;3908;52.310;7.230;2022-09-28T12:03:53;3.80;;;2.20;;
7729;SDS011;3908;52.310;7.230;2022-09-28T12:06:45;5.97;;;1.60;;
7729;SDS011;3908;52.310;7.230;2022-09-28T12:09:39;2.57;;;1.57;;
7729;SDS011;3908;52.310;7.230;2022-09-28T12:12:33;2.20;;;1.80;;
7729;SDS011;3908;52.310;7.230;2022-09-28T12:15:24;5.83;;;1.70;;
7729;SDS011;3908;52.310;7.230;2022-09-28T12:18:16;2.47;;;1.93;;
7729;SDS011;3908;52.310;7.230;2022-09-28T12:21:13;3.23;;;2.50;;
7729;SDS011;3908;52.310;7.230;2022-09-28T12:24:14;3.20;;;2.03;;
7729;SDS011;3908;52.310;7.230;2022-09-28T12:27:04;3.30;;;2.27;;
7729;SDS011;3908;52.310;7.230;2022-09-28T12:30:01;3.90;;;1.93;;
7729;SDS011;3908;52.310;7.230;2022-09-28T12:32:51;9.17;;;5.33;;
7729;SDS011;3908;52.310;7.230;2022-09-28T12:35:48;5.80;;;4.63;;
7729;SDS011;3908;52.310;7.230;2022-09-28T12:38:50;3.97;;;2.77;;
7729;SDS011;3908;52.310;7.230;2022-09-28T12:41:49;3.13;;;2.23;;
7729;SDS011;3908;52.310;7.230;2022-09-28T12:44:54;4.00;;;2.77;;
7729;SDS011;3908;52.310;7.230;2022-09-28T12:48:03;3.40;;;2.63;;
7729;SDS011;3908;52.310;7.230;2022-09-28T12:51:03;4.00;;;2.57;;
7729;SDS011;3908;52.310;7.230;2022-09-28T12:54:06;2.67;;;2.37;;
7729;SDS011;3908;52.310;7.230;2022-09-28T12:57:06;2.33;;;2.10;;
7729;SDS011;3908;52.310;7.230;2022-09-28T13:00:12;3.77;;;2.47;;
7729;SDS011;3908;52.310;7.230;2022-09-28T13:03:14;4.07;;;2.37;;
7729;SDS011;3908;52.310;7.230;2022-09-28T13:09:34;4.20;;;2.80;;
7729;SDS011;3908;52.310;7.230;2022-09-28T13:12:36;2.53;;;2.00;;
7729;SDS011;3908;52.310;7.230;2022-09-28T13:15:40;2.23;;;1.90;;
7729;SDS011;3908;52.310;7.230;2022-09-28T13:18:34;5.40;;;2.27;;
7729;SDS011;3908;52.310;7.230;2022-09-28T13:21:29;3.77;;;2.10;;
7729;SDS011;3908;52.310;7.230;2022-09-28T13:24:26;3.20;;;2.07;;
7729;SDS011;3908;52.310;7.230;2022-09-28T13:27:19;2.53;;;2.00;;
7729;SDS011;3908;52.310;7.230;2022-09-28T13:30:12;3.13;;;1.43;;
7729;SDS011;3908;52.310;7.230;2022-09-28T13:33:03;1.40;;;1.20;;
7729;SDS011;3908;52.310;7.230;2022-09-28T13:35:52;2.77;;;1.27;;
7729;SDS011;3908;52.310;7.230;2022-09-28T13:38:44;3.67;;;1.30;;
7729;SDS011;3908;52.310;7.230;2022-09-28T13:41:35;1.83;;;1.33;;
7729;SDS011;3908;52.310;7.230;2022-09-28T13:44:38;2.17;;;1.30;;
7729;SDS011;3908;52.310;7.230;2022-09-28T13:47:55;1.40;;;1.30;;
7729;SDS011;3908;52.310;7.230;2022-09-28T13:50:59;2.73;;;1.30;;
7729;SDS011;3908;52.310;7.230;2022-09-28T13:54:07;1.10;;;1.00;;
7729;SDS011;3908;52.310;7.230;2022-09-28T13:57:08;1.27;;;0.70;;
7729;SDS011;3908;52.310;7.230;2022-09-28T14:00:07;1.30;;;1.00;;
7729;SDS011;3908;52.310;7.230;2022-09-28T14:03:10;1.37;;;0.93;;
7729;SDS011;3908;52.310;7.230;2022-09-28T14:06:20;0.80;;;0.80;;
7729;SDS011;3908;52.310;7.230;2022-09-28T14:12:44;2.10;;;0.70;;
7729;SDS011;3908;52.310;7.230;2022-09-28T14:15:39;1.00;;;0.90;;
7729;SDS011;3908;52.310;7.230;2022-09-28T14:18:30;2.03;;;0.87;;
7729;SDS011;3908;52.310;7.230;2022-09-28T14:21:38;1.17;;;1.03;;
7729;SDS011;3908;52.310;7.230;2022-09-28T14:24:50;1.43;;;1.00;;
7729;SDS011;3908;52.310;7.230;2022-09-28T14:28:00;1.30;;;0.80;;
7729;SDS011;3908;52.310;7.230;2022-09-28T14:30:58;0.90;;;0.90;;
7729;SDS011;3908;52.310;7.230;2022-09-28T14:33:57;1.10;;;0.90;;
7729;SDS011;3908;52.310;7.230;2022-09-28T14:36:46;1.70;;;1.10;;
7729;SDS011;3908;52.310;7.230;2022-09-28T14:39:52;1.63;;;1.10;;
7729;SDS011;3908;52.310;7.230;2022-09-28T14:46:31;5.60;;;1.03;;
7729;SDS011;3908;52.310;7.230;2022-09-28T14:49:45;0.80;;;0.80;;
7729;SDS011;3908;52.310;7.230;2022-09-28T14:52:40;1.00;;;0.87;;
7729;SDS011;3908;52.310;7.230;2022-09-28T14:55:32;0.60;;;0.60;;
7729;SDS011;3908;52.310;7.230;2022-09-28T14:58:27;1.07;;;0.97;;
7729;SDS011;3908;52.310;7.230;2022-09-28T15:01:18;0.90;;;0.80;;
7729;SDS011;3908;52.310;7.230;2022-09-28T15:04:09;1.20;;;0.80;;
7729;SDS011;3908;52.310;7.230;2022-09-28T15:06:59;0.80;;;0.80;;
7729;SDS011;3908;52.310;7.230;2022-09-28T15:09:46;1.63;;;0.90;;
7729;SDS011;3908;52.310;7.230;2022-09-28T15:12:35;1.57;;;0.77;;
7729;SDS011;3908;52.310;7.230;2022-09-28T15:21:49;1.20;;;0.97;;
7729;SDS011;3908;52.310;7.230;2022-09-28T15:24:38;1.73;;;1.00;;
7729;SDS011;3908;52.310;7.230;2022-09-28T15:27:25;1.73;;;1.00;;
7729;SDS011;3908;52.310;7.230;2022-09-28T15:30:21;6.77;;;1.37;;
7729;SDS011;3908;52.310;7.230;2022-09-28T15:33:21;3.00;;;0.97;;
7729;SDS011;3908;52.310;7.230;2022-09-28T15:36:28;1.20;;;1.10;;
7729;SDS011;3908;52.310;7.230;2022-09-28T15:39:17;1.40;;;1.23;;
7729;SDS011;3908;52.310;7.230;2022-09-28T15:42:08;1.33;;;1.10;;
7729;SDS011;3908;52.310;7.230;2022-09-28T15:44:59;4.07;;;1.00;;
7729;SDS011;3908;52.310;7.230;2022-09-28T15:47:56;2.10;;;1.73;;
7729;SDS011;3908;52.310;7.230;2022-09-28T15:51:13;1.23;;;1.00;;
7729;SDS011;3908;52.310;7.230;2022-09-28T15:54:01;0.73;;;0.73;;
7729;SDS011;3908;52.310;7.230;2022-09-28T15:56:50;1.00;;;0.90;;
7729;SDS011;3908;52.310;7.230;2022-09-28T15:59:40;3.70;;;1.00;;
7729;SDS011;3908;52.310;7.230;2022-09-28T16:02:29;2.90;;;1.00;;
7729;SDS011;3908;52.310;7.230;2022-09-28T16:05:28;1.23;;;0.93;;
7729;SDS011;3908;52.310;7.230;2022-09-28T16:08:20;6.77;;;3.73;;
7729;SDS011;3908;52.310;7.230;2022-09-28T16:11:12;3.73;;;2.07;;
7729;SDS011;3908;52.310;7.230;2022-09-28T16:14:03;2.07;;;1.30;;
7729;SDS011;3908;52.310;7.230;2022-09-28T16:16:54;1.43;;;1.10;;
7729;SDS011;3908;52.310;7.230;2022-09-28T16:19:41;4.70;;;1.00;;
7729;SDS011;3908;52.310;7.230;2022-09-28T16:22:33;1.53;;;1.10;;
7729;SDS011;3908;52.310;7.230;2022-09-28T16:25:21;1.20;;;1.00;;
7729;SDS011;3908;52.310;7.230;2022-09-28T16:28:12;1.20;;;0.90;;
7729;SDS011;3908;52.310;7.230;2022-09-28T16:31:21;2.67;;;1.30;;
7729;SDS011;3908;52.310;7.230;2022-09-28T16:34:17;1.40;;;1.30;;
7729;SDS011;3908;52.310;7.230;2022-09-28T16:37:08;1.83;;;1.20;;
7729;SDS011;3908;52.310;7.230;2022-09-28T16:40:16;2.30;;;1.40;;
7729;SDS011;3908;52.310;7.230;2022-09-28T16:43:04;6.17;;;1.40;;
7729;SDS011;3908;52.310;7.230;2022-09-28T16:45:52;8.63;;;1.67;;
7729;SDS011;3908;52.310;7.230;2022-09-28T16:48:42;2.00;;;1.33;;
7729;SDS011;3908;52.310;7.230;2022-09-28T16:51:34;1.43;;;1.27;;
7729;SDS011;3908;52.310;7.230;2022-09-28T16:54:24;2.90;;;1.57;;
7729;SDS011;3908;52.310;7.230;2022-09-28T16:57:28;2.20;;;1.30;;
7729;SDS011;3908;52.310;7.230;2022-09-28T17:00:16;1.43;;;1.30;;
7729;SDS011;3908;52.310;7.230;2022-09-28T17:03:10;2.37;;;1.40;;
7729;SDS011;3908;52.310;7.230;2022-09-28T17:05:59;2.20;;;1.33;;
7729;SDS011;3908;52.310;7.230;2022-09-28T17:08:50;2.60;;;1.77;;
7729;SDS011;3908;52.310;7.230;2022-09-28T17:11:37;3.60;;;1.40;;
7729;SDS011;3908;52.310;7.230;2022-09-28T17:14:24;26.67;;;2.77;;
7729;SDS011;3908;52.310;7.230;2022-09-28T17:17:11;1.67;;;1.40;;
7729;SDS011;3908;52.310;7.230;2022-09-28T17:19:58;2.83;;;1.30;;
7729;SDS011;3908;52.310;7.230;2022-09-28T17:22:46;25.23;;;9.83;;
7729;SDS011;3908;52.310;7.230;2022-09-28T17:25:34;7.30;;;4.27;;
7729;SDS011;3908;52.310;7.230;2022-09-28T17:28:22;1.30;;;1.10;;
7729;SDS011;3908;52.310;7.230;2022-09-28T17:31:13;1.00;;;0.90;;
7729;SDS011;3908;52.310;7.230;2022-09-28T17:34:01;2.50;;;1.00;;
7729;SDS011;3908;52.310;7.230;2022-09-28T17:36:48;2.60;;;1.20;;
7729;SDS011;3908;52.310;7.230;2022-09-28T17:39:35;2.47;;;1.33;;
7729;SDS011;3908;52.310;7.230;2022-09-28T17:42:23;1.93;;;1.20;;
7729;SDS011;3908;52.310;7.230;2022-09-28T17:45:10;2.03;;;1.67;;
7729;SDS011;3908;52.310;7.230;2022-09-28T17:47:58;2.77;;;1.20;;
7729;SDS011;3908;52.310;7.230;2022-09-28T17:50:45;1.57;;;1.20;;
7729;SDS011;3908;52.310;7.230;2022-09-28T17:53:32;3.33;;;1.60;;
7729;SDS011;3908;52.310;7.230;2022-09-28T17:56:19;6.57;;;1.57;;
7729;SDS011;3908;52.310;7.230;2022-09-28T17:59:09;21.17;;;2.87;;